Latest Weather Observations for Tasman Island

IDT60801

Issued at 9:11 pm EDT Friday 18 January 2019 (issued every 10 minutes, with the page automatically refreshed every 10 minutes)

About weather observations | Map of weather stations | Latest weather observations for TAS | Other Formats
Station Details ID: 094155 Name: TASMAN ISLAND Lat: -43.24 Lon: 148.00 Height: 240.0 m
Data from the previous 72 hours. | See also: Recent months at Tasman Island
Date/Time
EDT
Temp
°C
App
Temp
°C
Dew
Point
°C
Rel
Hum
%
Delta-T
°C
Wind Press
QNH
hPa
Press
MSL
hPa
Rain since
9am
mm
Dir  Spd
km/h
Gust
km/h
Spd
kts
Gust
kts
18/09:00pm 14.8 14.0 13.0 89 1.0 N 9 11 5 6 1003.1 1002.7 0.0
18/08:30pm 14.7 14.3 12.9 89 1.0 N 7 13 4 7 1003.2 1002.8 0.0
18/08:00pm 14.8 13.3 13.0 89 1.0 NNE 13 17 7 9 1003.2 1002.8 0.0
18/07:30pm 14.9 14.7 13.1 89 1.0 NNE 6 13 3 7 1003.4 1003.0 0.0
18/07:00pm 15.2 15.4 12.9 86 1.3 WNW 4 13 2 7 1003.3 1002.9 0.0
18/06:30pm 15.9 15.6 12.6 81 1.8 E 6 11 3 6 1003.4 1003.0 0.0
18/06:00pm 15.8 15.3 12.7 82 1.7 ESE 7 9 4 5 1003.6 1003.3 0.0
18/05:30pm 16.3 16.5 13.0 81 1.9 SE 4 13 2 7 1003.6 1003.3 0.0
18/05:00pm 16.2 15.8 12.9 81 1.9 SSE 7 13 4 7 1004.0 1003.7 0.0
18/04:30pm 16.6 16.0 12.4 76 2.3 SSE 7 13 4 7 1004.3 1004.0 0.0
18/04:00pm 16.3 15.3 12.3 77 2.2 SSE 9 15 5 8 1004.3 1004.0 0.0
18/03:30pm 17.5 16.1 12.2 71 3.0 SE 11 19 6 10 1004.4 1004.1 0.0
18/03:00pm 18.6 17.6 12.4 67 3.5 SE 9 15 5 8 1004.8 1004.5 0.0
18/02:30pm 18.4 16.7 12.4 68 3.4 SE 13 20 7 11 1005.1 1004.8 0.0
18/02:00pm 18.0 16.7 12.5 70 3.1 SE 11 20 6 11 1005.4 1005.1 0.0
18/01:30pm 18.3 17.1 12.7 70 3.2 ESE 11 17 6 9 1005.8 1005.4 0.0
18/01:00pm 18.3 17.0 13.6 74 2.7 SSE 13 19 7 10 1006.3 1005.9 0.0
18/12:30pm 18.0 17.1 13.7 76 2.5 SSE 11 17 6 9 1006.6 1006.2 0.0
18/12:00pm 17.6 17.2 13.1 75 2.6 SW 7 13 4 7 1007.0 1006.6 0.0
18/11:30am 17.4 16.6 12.9 75 2.5 WSW 9 13 5 7 1007.0 1006.6 0.0
18/11:00am 17.6 16.6 13.5 77 2.4 SW 11 17 6 9 1006.7 1006.3 0.0
18/10:30am 16.2 15.4 12.9 81 1.9 SW 9 13 5 7 1006.9 1006.5 0.0
18/10:00am 16.2 15.9 12.7 80 2.0 W 6 11 3 6 1007.0 1006.6 0.0
18/09:30am 16.6 16.2 13.1 80 2.0 WSW 7 11 4 6 1006.9 1006.5 0.0
18/09:00am 16.0 15.4 13.5 85 1.4 SW 9 19 5 10 1007.0 1006.6 0.0
18/08:30am 15.0 13.5 13.0 88 1.1 SW 13 22 7 12 1007.0 1006.6 0.0
18/08:00am 14.3 11.9 12.7 90 0.9 SW 17 24 9 13 1006.8 1006.4 0.0
18/07:30am 14.7 13.5 12.9 89 1.0 SSW 11 24 6 13 1006.6 1006.2 0.0
18/07:00am 14.6 13.7 12.6 88 1.1 SSW 9 15 5 8 1006.4 1006.0 0.0
18/06:30am 14.4 13.1 12.6 89 1.0 SSW 11 17 6 9 1006.2 1005.8 0.0
18/06:00am 14.3 12.8 13.0 92 0.7 SSW 13 17 7 9 1005.8 1005.4 0.0
18/05:30am 14.3 13.6 13.3 94 0.6 SSW 9 13 5 7 1005.6 1005.3 0.0
18/05:00am 14.1 13.7 13.0 93 0.6 SSW 7 13 4 7 1005.2 1004.9 0.0
18/04:30am 14.3 13.6 13.2 93 0.6 SW 9 15 5 8 1005.5 1005.2 0.0
18/04:00am 14.3 14.0 13.2 93 0.6 SW 7 11 4 6 1005.3 1005.0 0.0
18/03:30am 14.1 13.7 13.0 93 0.6 SW 7 13 4 7 1005.3 1005.0 0.0
18/03:00am 14.0 13.6 12.9 93 0.6 SSW 7 11 4 6 1005.1 1004.8 0.0
18/02:30am 14.2 13.8 13.1 93 0.6 SW 7 13 4 7 1005.4 1005.1 0.0
18/02:00am 14.1 13.2 12.7 91 0.8 SSW 9 13 5 7 1005.5 1005.2 0.0
18/01:30am 14.4 13.3 13.0 91 0.8 SW 11 19 6 10 1006.1 1005.7 0.0
18/01:00am 14.5 12.3 13.4 93 0.6 SW 17 24 9 13 1006.0 1005.6 0.0
18/12:30am 14.8 12.8 14.0 95 0.5 SW 17 20 9 11 1006.2 1005.8 0.0
18/12:00am 14.9 12.6 14.1 95 0.5 SW 19 24 10 13 1006.4 1006.0 0.0
 
Date/Time
EDT
Temp
°C
App
Temp
°C
Dew
Point
°C
Rel
Hum
%
Delta-T
°C
Wind Press
QNH
hPa
Press
MSL
hPa
Rain since
9am
mm
Dir  Spd
km/h
Gust
km/h
Spd
kts
Gust
kts
17/11:30pm 15.1 12.7 14.3 95 0.5 SW 20 28 11 15 1006.7 1006.3 0.0
17/11:00pm 15.3 13.2 14.7 96 0.3 SW 19 28 10 15 1007.0 1006.6 0.0
17/10:30pm 15.4 13.2 14.8 96 0.3 SW 20 32 11 17 1007.2 1006.9 0.0
17/10:00pm 15.6 14.0 15.1 97 0.3 SSW 17 26 9 14 1007.4 1007.1 0.0
17/09:30pm 15.9 14.5 15.6 98 0.2 SW 17 24 9 13 1007.0 1006.6 0.0
17/09:00pm 16.9 16.7 16.6 98 0.2 W 13 20 7 11 1006.7 1006.3 0.0
17/08:30pm 16.9 16.2 16.3 96 0.4 WNW 15 22 8 12 1006.5 1006.1 0.0
17/08:00pm 17.5 16.2 15.8 90 1.0 W 17 22 9 12 1006.3 1005.9 0.0
17/07:30pm 20.4 21.1 16.2 77 2.5 WNW 7 13 4 7 1006.1 1005.7 0.0
17/07:00pm 18.8 19.6 17.3 91 0.9 NNE 9 15 5 8 1006.0 1005.6 0.0
17/06:30pm 18.5 17.5 17.5 94 0.6 NNE 19 24 10 13 1006.0 1005.6 0.0
17/06:00pm 18.9 17.7 17.4 91 0.9 NNE 20 28 11 15 1006.2 1005.8 0.0
17/05:30pm 19.0 17.8 17.0 88 1.2 NE 19 24 10 13 1006.0 1005.6 0.0
17/05:00pm 19.1 17.8 16.9 87 1.3 NE 19 30 10 16 1006.2 1005.8 0.0
17/04:30pm 19.0 17.6 16.6 86 1.5 NE 19 28 10 15 1006.5 1006.1 0.0
17/04:00pm 18.8 17.6 16.2 85 1.6 NE 17 28 9 15 1006.6 1006.2 0.0
17/03:30pm 18.1 16.0 15.2 83 1.7 NE 20 28 11 15 1006.7 1006.3 0.0
17/03:00pm 18.4 16.5 15.3 82 1.8 NE 19 30 10 16 1006.5 1006.1 0.0
17/02:30pm 18.2 17.4 15.1 82 1.8 NE 13 24 7 13 1006.8 1006.4 0.0
17/02:00pm 18.5 16.8 14.6 78 2.3 NE 17 24 9 13 1006.9 1006.5 0.0
17/01:30pm 18.7 16.9 13.3 71 3.1 NE 15 22 8 12 1007.2 1006.9 0.0
17/01:00pm 17.9 17.2 13.2 74 2.7 NE 9 17 5 9 1007.4 1007.1 0.0
17/12:30pm 18.1 18.2 14.4 79 2.2 ENE 7 15 4 8 1007.5 1007.2 0.0
17/12:00pm 17.0 17.1 14.5 85 1.5 ENE 7 11 4 6 1007.7 1007.4 0.0
17/11:30am 16.8 16.6 14.6 87 1.3 NNE 9 17 5 9 1008.0 1007.7 0.0
17/11:00am 16.3 16.4 14.5 89 1.0 N 7 13 4 7 1008.8 1008.5 0.0
17/10:30am 15.3 15.5 14.2 93 0.6 WNW 6 7 3 4 1009.3 1009.0 0.0
17/10:00am 14.7 13.8 13.7 94 0.6 WSW 11 13 6 7 1009.5 1009.2 0.0
17/09:30am 14.9 13.7 14.1 95 0.5 WSW 13 17 7 9 1010.2 1009.8 0.0
17/09:00am 15.1 13.9 14.1 94 0.6 WSW 13 19 7 10 1009.9 1009.6 0.0
17/08:30am 15.4 15.4 14.1 92 0.7 W 7 17 4 9 1010.3 1009.9 0.0
17/08:00am 15.4 14.6 13.9 91 0.9 W 11 17 6 9 1010.2 1009.8 0.0
17/07:30am 15.3 15.2 13.8 91 0.9 W 7 13 4 7 1009.4 1009.1 0.0
17/07:00am 15.2 15.4 14.2 94 0.6 WNW 6 13 3 7 1009.6 1009.3 0.0
17/06:30am 15.3 15.3 14.2 93 0.6 W 7 9 4 5 1009.1 1008.8 0.0
17/06:00am 15.5 15.7 14.2 92 0.7 WSW 6 7 3 4 1008.6 1008.3 0.0
17/05:30am 15.6 15.7 14.5 93 0.6 NNE 7 9 4 5 1008.2 1007.9 0.0
17/05:00am 15.3 15.3 14.2 93 0.6 NW 7 9 4 5 1008.8 1008.5 0.0
17/04:30am 15.8 15.9 14.5 92 0.8 NNW 7 11 4 6 1008.5 1008.2 0.0
17/04:00am 15.8 15.2 14.5 92 0.8 NNE 11 17 6 9 1008.1 1007.8 0.0
17/03:30am 15.9 14.7 15.1 95 0.5 N 15 20 8 11 1008.7 1008.4 0.0
17/03:00am 16.0 13.0 14.9 93 0.6 NNE 24 35 13 19 1009.3 1009.0 0.0
17/02:30am 15.8 13.6 14.3 91 0.9 NNE 19 37 10 20 1009.3 1009.0 0.0
17/02:00am 15.6 11.1 13.8 89 1.0 NNE 30 44 16 24 1009.3 1009.0 0.0
17/01:30am 15.5 10.8 13.3 87 1.2 NNE 30 43 16 23 1009.6 1009.3 0.0
17/01:00am 15.2 10.5 13.2 88 1.1 NNE 30 52 16 28 1009.7 1009.4 0.0
17/12:36am 14.9 10.5 12.9 88 1.1 NNE 28 48 15 26 1009.9 1009.6 0.0
17/12:30am 14.9 10.9 12.9 88 1.1 NNE 26 44 14 24 1010.1 1009.7 0.0
17/12:00am 14.1 10.3 12.5 90 0.9 NNE 24 41 13 22 1010.3 1009.9 0.0
 
Date/Time
EDT
Temp
°C
App
Temp
°C
Dew
Point
°C
Rel
Hum
%
Delta-T
°C
Wind Press
QNH
hPa
Press
MSL
hPa
Rain since
9am
mm
Dir  Spd
km/h
Gust
km/h
Spd
kts
Gust
kts
16/11:30pm 14.3 10.7 12.0 86 1.3 NNE 22 43 12 23 1010.8 1010.5 0.0
16/11:00pm 14.2 11.5 11.7 85 1.4 NNE 17 35 9 19 1011.3 1011.0 0.0
16/10:30pm 14.3 12.7 11.6 84 1.5 N 11 26 6 14 1011.6 1011.3 0.0
16/10:00pm 14.1 12.9 11.6 85 1.4 N 9 28 5 15 1011.5 1011.2 0.0
16/09:30pm 14.0 13.2 11.7 86 1.2 NNE 7 26 4 14 1011.5 1011.2 0.0
16/09:00pm 13.9 12.8 11.8 87 1.1 NNE 9 20 5 11 1011.8 1011.5 0.0
16/08:30pm 13.8 12.8 11.1 84 1.4 NE 7 20 4 11 1011.9 1011.6 0.0
16/08:00pm 13.9 13.1 11.2 84 1.4 W 6 15 3 8 1012.7 1012.4 0.0
16/07:30pm 13.9 12.9 10.9 82 1.6 ENE 7 13 4 7 1013.0 1012.7 0.0
16/07:00pm 14.2 13.3 10.6 79 1.9 NNE 6 13 3 7 1012.6 1012.3 0.0
16/06:30pm 14.5 13.4 10.1 75 2.3 ENE 6 15 3 8 1012.7 1012.4 0.0
16/06:00pm 14.7 13.4 9.9 73 2.5 E 7 13 4 7 1012.5 1012.2 0.0
16/05:30pm 14.9 13.8 10.1 73 2.5 SE 6 13 3 7 1012.7 1012.4 0.0
16/05:00pm 15.0 12.9 9.8 71 2.7 SE 11 17 6 9 1012.5 1012.2 0.0
16/04:30pm 15.8 13.4 10.1 69 3.0 SE 13 19 7 10 1012.4 1012.1 0.0
16/04:00pm 16.5 14.4 9.9 65 3.5 SSE 11 19 6 10 1012.3 1012.0 0.0
16/03:30pm 17.3 14.9 10.2 63 3.8 SSE 13 19 7 10 1012.4 1012.1 0.0
16/03:00pm 17.5 15.4 9.7 60 4.2 SSE 11 20 6 11 1012.3 1012.0 0.0
16/02:30pm 17.6 15.3 10.5 63 3.8 S 13 19 7 10 1012.5 1012.2 0.0
16/02:00pm 18.2 15.2 9.3 56 4.7 SSW 15 22 8 12 1012.4 1012.1 0.0
16/01:30pm 17.3 14.4 9.5 60 4.1 S 15 20 8 11 1012.5 1012.2 0.0
16/01:00pm 17.6 14.7 9.5 59 4.3 SSW 15 24 8 13 1012.6 1012.3 0.0
16/12:30pm 17.5 14.9 10.6 64 3.7 SSW 15 24 8 13 1012.5 1012.2 0.0
16/12:00pm 16.1 13.4 10.4 69 3.1 SSW 15 24 8 13 1012.4 1012.1 0.0
16/11:30am 15.2 11.7 10.8 75 2.4 SSW 20 30 11 16 1012.1 1011.8 0.0
16/11:00am 14.9 11.7 10.1 73 2.5 SSW 17 30 9 16 1012.2 1011.9 0.0
16/10:30am 14.9 11.3 10.7 76 2.2 SSW 20 30 11 16 1012.1 1011.8 0.0
16/10:00am 15.2 11.4 11.0 76 2.3 SSW 22 32 12 17 1011.7 1011.4 0.0
16/09:30am 15.2 11.6 10.6 74 2.5 SSW 20 35 11 19 1011.6 1011.3 0.0
16/09:00am 14.6 11.2 10.4 76 2.2 SW 19 28 10 15 1011.4 1011.1 0.0
16/08:30am 14.7 11.1 9.9 73 2.5 SSW 19 28 10 15 1011.1 1010.8 0.0
16/08:00am 14.6 11.7 9.6 72 2.6 SW 15 30 8 16 1010.6 1010.2 0.0
16/07:30am 14.2 10.9 9.4 73 2.5 SW 17 28 9 15 1010.3 1009.9 0.0
16/07:00am 13.7 9.4 9.4 75 2.2 SSW 22 37 12 20 1009.6 1009.3 0.0
16/06:30am 13.8 8.8 9.5 75 2.2 SSW 26 41 14 22 1009.1 1008.8 0.0
16/06:09am 13.5 8.2 9.7 78 2.0 SW 28 46 15 25 1008.9 1008.6 0.0
16/06:00am 13.6 8.8 10.2 80 1.8 SSW 26 46 14 25 1009.2 1008.9 0.0
16/05:32am 13.6 7.6 10.8 83 1.5 SW 33 54 18 29 1008.9 1008.6 0.0
16/05:30am 13.6 7.2 10.8 83 1.5 SW 35 54 19 29 1008.9 1008.6 0.0
16/05:26am 13.6 6.4 10.6 82 1.6 SW 39 57 21 31 1008.7 1008.4 0.0
16/05:00am 13.7 5.7 10.3 80 1.8 SW 43 57 23 31 1008.4 1008.1 0.0
16/04:30am 13.8 7.0 10.8 82 1.6 SW 37 54 20 29 1008.3 1008.0 0.0
16/04:00am 13.9 7.7 11.4 85 1.3 SW 35 56 19 30 1008.2 1007.9 0.0
16/03:30am 14.1 8.2 12.5 90 0.9 SW 35 54 19 29 1008.1 1007.8 0.0
16/03:00am 14.3 8.7 13.3 94 0.6 SSW 35 63 19 34 1008.0 1007.7 0.0
16/02:30am 14.6 8.5 14.0 96 0.3 SW 39 69 21 37 1007.8 1007.5 0.0
16/02:04am 15.0 9.8 14.5 97 0.3 SW 35 54 19 29 1007.8 1007.5 0.0
16/02:00am 15.1 10.3 14.6 97 0.3 SW 33 50 18 27 1007.7 1007.4 0.0
16/01:34am 15.3 10.5 14.7 96 0.3 SW 33 54 18 29 1007.9 1007.6 0.0
16/01:30am 15.4 10.7 14.8 96 0.3 SW 33 50 18 27 1008.0 1007.7 0.0
16/01:00am 15.8 10.9 15.2 96 0.4 SW 35 52 19 28 1008.1 1007.8 0.0
16/12:30am 16.2 13.2 14.7 91 0.9 SW 24 39 13 21 1008.0 1007.7 0.0
16/12:00am 15.8 13.3 14.2 90 0.9 SW 20 28 11 15 1008.0 1007.7 0.0
 
Date/Time
EDT
Temp
°C
App
Temp
°C
Dew
Point
°C
Rel
Hum
%
Delta-T
°C
Wind Press
QNH
hPa
Press
MSL
hPa
Rain since
9am
mm
Dir  Spd
km/h
Gust
km/h
Spd
kts
Gust
kts
15/11:30pm 15.8 13.9 13.1 84 1.5 SW 15 20 8 11 1007.6 1007.3 0.0
15/11:00pm 16.5 15.5 11.0 70 3.0 SSW 7 11 4 6 1007.2 1006.9 0.0
15/10:30pm 17.3 15.1 9.5 60 4.1 SSE 11 17 6 9 1007.3 1007.0 0.0
15/10:00pm 17.6 15.9 10.0 61 4.1 SSE 9 15 5 8 1007.0 1006.6 0.0
15/09:30pm 17.5 16.0 10.6 64 3.7 SSE 9 13 5 7 1007.2 1006.9 0.0

Other Formats:

Comma delimited format used in spreadsheet applications
http://www.bom.gov.au/fwo/IDT60801/IDT60801.95986.axf

JavaScript Object Notation format (JSON) in row-major order
http://www.bom.gov.au/fwo/IDT60801/IDT60801.95986.json